Time;durP1;ratioP1;P1;durP2;ratioP2;P2;SDS_P1;SDS_P2;PMS_P1;PMS_P2;Temp;Humidity;BMP_temperature;BMP_pressure;BME280_temperature;BME280_humidity;BME280_pressure;Samples;Min_cycle;Max_cycle;Signal;HPM_P1;HPM_P2
2023/03/09 00:02:04;;;;;;;0.60;0.60;;;0.80;99.90;;;;;;4953769;28;20129;-83
2023/03/09 00:04:30;;;;;;;0.60;0.60;;;1.00;99.90;;;;;;4946644;28;20092;-83
2023/03/09 00:06:56;;;;;;;0.70;0.70;;;0.70;99.90;;;;;;4967147;28;20042;-83
2023/03/09 00:09:22;;;;;;;1.05;1.05;;;1.00;99.90;;;;;;4963948;28;20045;-83
2023/03/09 00:11:48;;;;;;;0.80;0.80;;;0.70;99.90;;;;;;4938557;28;20047;-83
2023/03/09 00:14:14;;;;;;;;;;;0.80;99.90;;;;;;4952596;28;20496;-83
2023/03/09 00:16:40;;;;;;;0.70;0.70;;;1.00;99.90;;;;;;4968497;28;20331;-83
2023/03/09 00:19:06;;;;;;;0.70;0.70;;;1.00;99.90;;;;;;5031793;28;20073;-83
2023/03/09 00:21:40;;;;;;;0.50;0.50;;;0.80;99.90;;;;;;4958447;28;20058;-82
2023/03/09 00:24:11;;;;;;;0.57;0.57;;;2.50;99.90;;;;;;4961511;28;20103;-84
2023/03/09 00:26:39;;;;;;;0.57;0.57;;;1.00;99.90;;;;;;4962429;28;20055;-83
2023/03/09 00:29:07;;;;;;;0.70;0.70;;;0.50;99.90;;;;;;4945365;28;20047;-83
2023/03/09 00:31:33;;;;;;;0.63;0.63;;;2.60;99.90;;;;;;4965827;28;20055;-83
2023/03/09 00:33:59;;;;;;;0.60;0.60;;;0.70;99.90;;;;;;4962702;28;20126;-82
2023/03/09 00:36:25;;;;;;;;;;;1.00;99.90;;;;;;4947951;28;20123;-84
2023/03/09 00:38:52;;;;;;;0.60;0.60;;;1.00;99.90;;;;;;4963073;28;20654;-82
2023/03/09 00:41:20;;;;;;;0.68;0.68;;;1.10;99.90;;;;;;4949135;28;20030;-82
2023/03/09 00:43:45;;;;;;;0.60;0.60;;;1.70;99.90;;;;;;4959053;28;20043;-83
2023/03/09 00:46:11;;;;;;;0.70;0.70;;;0.30;99.90;;;;;;4932653;28;20074;-83
2023/03/09 00:48:43;;;;;;;0.60;0.60;;;0.50;99.90;;;;;;4960857;28;20065;-82
2023/03/09 00:51:09;;;;;;;0.70;0.70;;;0.50;99.90;;;;;;4945341;28;20047;-82
2023/03/09 00:53:36;;;;;;;0.60;0.60;;;0.50;99.90;;;;;;4982461;28;20060;-83
2023/03/09 00:56:07;;;;;;;0.68;0.68;;;2.10;99.90;;;;;;4969417;28;20049;-82
2023/03/09 00:58:35;;;;;;;0.63;0.63;;;2.00;99.90;;;;;;4980733;28;20122;-83
2023/03/09 01:01:00;;;;;;;0.70;0.70;;;1.90;99.90;;;;;;4965980;28;20069;-82
2023/03/09 01:03:26;;;;;;;0.50;0.50;;;0.30;99.90;;;;;;4983050;28;20437;-82
2023/03/09 01:05:52;;;;;;;;;;;0.20;99.90;;;;;;4966373;28;20047;-82
2023/03/09 01:08:24;;;;;;;0.65;0.65;;;0.70;99.90;;;;;;4932509;28;19929;-83
2023/03/09 01:10:49;;;;;;;0.70;0.70;;;1.70;99.90;;;;;;4931348;28;20039;-84
2023/03/09 01:13:15;;;;;;;0.70;0.70;;;0.00;99.90;;;;;;4964603;28;20039;-83
2023/03/09 01:15:41;;;;;;;0.60;0.60;;;-0.10;99.90;;;;;;4948889;28;20043;-83
2023/03/09 01:18:06;;;;;;;0.70;0.70;;;1.90;99.90;;;;;;5027575;28;20484;-85
2023/03/09 01:20:32;;;;;;;1.02;1.02;;;-0.10;99.90;;;;;;4934029;28;20576;-83
2023/03/09 01:22:58;;;;;;;0.70;0.70;;;0.30;99.90;;;;;;4946385;28;20142;-82
2023/03/09 01:25:24;;;;;;;0.73;0.73;;;0.80;99.90;;;;;;4945748;28;20089;-83
2023/03/09 01:27:51;;;;;;;0.57;0.57;;;0.30;99.90;;;;;;4946870;28;20104;-82
2023/03/09 01:30:17;;;;;;;0.70;0.70;;;0.20;99.90;;;;;;4964505;28;20039;-83
2023/03/09 01:32:43;;;;;;;0.80;0.80;;;0.30;99.90;;;;;;4964635;28;20039;-82
2023/03/09 01:35:08;;;;;;;0.68;0.68;;;0.20;99.90;;;;;;4963778;28;20043;-83
2023/03/09 01:37:35;;;;;;;0.70;0.70;;;-0.20;99.90;;;;;;4961791;28;20067;-83
2023/03/09 01:40:00;;;;;;;;;;;0.00;99.90;;;;;;4968296;28;20479;-82
2023/03/09 01:42:26;;;;;;;0.70;0.70;;;-0.10;99.90;;;;;;4967012;28;20022;-82
2023/03/09 01:45:17;;;;;;;0.70;0.70;;;-0.10;99.90;;;;;;4942476;28;20047;-83
2023/03/09 01:47:43;;;;;;;0.70;0.70;;;-0.20;99.90;;;;;;4970224;28;20145;-82
2023/03/09 01:50:09;;;;;;;0.70;0.70;;;-0.30;99.90;;;;;;4958737;28;20180;-83
2023/03/09 01:52:35;;;;;;;0.70;0.70;;;-0.30;99.90;;;;;;4950445;28;20139;-84
2023/03/09 01:55:08;;;;;;;0.70;0.70;;;-0.40;99.90;;;;;;4968200;28;20493;-83
2023/03/09 01:57:36;;;;;;;0.80;0.80;;;-0.40;99.90;;;;;;4967834;28;20125;-82
2023/03/09 02:00:07;;;;;;;0.60;0.60;;;-0.40;99.90;;;;;;4962081;28;20070;-83
2023/03/09 02:02:38;;;;;;;0.80;0.80;;;-0.60;99.90;;;;;;4968316;28;20145;-83
2023/03/09 02:05:09;;;;;;;0.80;0.80;;;-0.70;99.90;;;;;;4972122;28;20070;-83
2023/03/09 02:07:38;;;;;;;0.80;0.80;;;-0.70;99.90;;;;;;4967817;28;20054;-83
2023/03/09 02:10:26;;;;;;;0.80;0.80;;;-1.10;99.90;;;;;;4967062;28;20548;-84
2023/03/09 02:12:57;;;;;;;0.70;0.70;;;-0.80;99.90;;;;;;4947352;28;20054;-84
2023/03/09 02:15:24;;;;;;;0.70;0.70;;;-0.80;99.90;;;;;;4954872;28;20042;-82
2023/03/09 02:17:51;;;;;;;0.80;0.80;;;-0.80;99.90;;;;;;4996047;28;20057;-83
2023/03/09 02:20:39;;;;;;;0.80;0.80;;;-1.00;99.90;;;;;;4964269;28;20047;-83
2023/03/09 02:23:15;;;;;;;0.75;0.75;;;-0.80;99.90;;;;;;4964796;28;20810;-84
2023/03/09 02:25:51;;;;;;;0.80;0.80;;;0.00;99.90;;;;;;4965718;28;20062;-82
2023/03/09 02:28:18;;;;;;;0.85;0.85;;;-0.80;99.90;;;;;;4966459;28;20381;-81
2023/03/09 02:30:46;;;;;;;0.70;0.70;;;-0.70;99.90;;;;;;4917683;28;20117;-83
2023/03/09 02:33:25;;;;;;;0.70;0.70;;;-0.10;99.90;;;;;;4968018;28;20049;-82
2023/03/09 02:35:59;;;;;;;0.70;0.70;;;0.20;99.90;;;;;;4967694;28;20368;-81
2023/03/09 02:38:27;;;;;;;0.70;0.70;;;-0.10;99.90;;;;;;4945923;28;20051;-82
2023/03/09 02:40:56;;;;;;;0.85;0.85;;;-0.60;99.90;;;;;;4949938;28;20122;-82
2023/03/09 02:43:28;;;;;;;0.80;0.80;;;-1.00;99.90;;;;;;4945733;28;20499;-84
2023/03/09 02:45:55;;;;;;;1.20;1.15;;;-0.60;99.90;;;;;;4964741;28;20087;-83
2023/03/09 02:48:21;;;;;;;0.70;0.70;;;-1.00;99.90;;;;;;4948629;28;20108;-81
2023/03/09 02:50:49;;;;;;;0.75;0.75;;;1.20;99.90;;;;;;4942697;28;20054;-84
2023/03/09 02:53:14;;;;;;;0.70;0.70;;;-0.60;99.90;;;;;;4950834;28;20066;-83
2023/03/09 02:55:40;;;;;;;0.80;0.80;;;-1.00;99.90;;;;;;4931874;28;20039;-83
2023/03/09 02:58:06;;;;;;;0.70;0.70;;;-0.90;99.90;;;;;;4930412;28;21737;-82
2023/03/09 03:00:31;;;;;;;0.70;0.70;;;-0.60;99.90;;;;;;4966537;28;20909;-83
2023/03/09 03:02:57;;;;;;;0.90;0.90;;;-0.60;99.90;;;;;;4951583;28;20039;-84
2023/03/09 03:05:23;;;;;;;0.70;0.70;;;-0.60;99.90;;;;;;4953592;28;20472;-83
2023/03/09 03:07:49;;;;;;;0.70;0.70;;;-0.50;99.90;;;;;;4951209;28;20416;-82
2023/03/09 03:10:16;;;;;;;0.80;0.80;;;-0.90;99.90;;;;;;4949365;28;20043;-82
2023/03/09 03:12:41;;;;;;;0.90;0.90;;;-0.50;99.90;;;;;;4933389;28;20050;-83
2023/03/09 03:15:08;;;;;;;0.90;0.90;;;0.00;99.90;;;;;;4935472;28;20043;-84
2023/03/09 03:17:34;;;;;;;0.70;0.70;;;-0.40;99.90;;;;;;4967068;28;20377;-83
2023/03/09 03:20:00;;;;;;;;;;;-0.80;99.90;;;;;;5030988;28;20047;-83
2023/03/09 03:22:26;;;;;;;0.70;0.70;;;-0.80;99.90;;;;;;4945369;29;19926;-82
2023/03/09 03:24:57;;;;;;;0.70;0.70;;;-0.40;99.90;;;;;;4942923;28;20054;-83
2023/03/09 03:27:23;;;;;;;0.70;0.70;;;-0.60;99.90;;;;;;4965787;28;20038;-82
2023/03/09 03:29:52;;;;;;;0.60;0.60;;;-0.40;99.90;;;;;;4938611;28;20126;-84
2023/03/09 03:32:17;;;;;;;0.70;0.70;;;-0.60;99.90;;;;;;4935202;28;20130;-82
2023/03/09 03:34:43;;;;;;;0.70;0.70;;;-0.70;99.90;;;;;;4967036;28;20141;-83
2023/03/09 03:37:09;;;;;;;1.00;1.00;;;0.70;99.90;;;;;;4960822;28;20435;-81
2023/03/09 03:39:35;;;;;;;0.80;0.80;;;-0.30;99.90;;;;;;4962954;28;20051;-81
2023/03/09 03:42:00;;;;;;;0.90;0.90;;;-0.20;99.90;;;;;;4963396;28;20054;-82
2023/03/09 03:44:26;;;;;;;0.70;0.70;;;-0.50;99.90;;;;;;5028187;28;20045;-83
2023/03/09 03:46:52;;;;;;;0.70;0.70;;;-0.10;99.90;;;;;;4966987;28;20042;-81
2023/03/09 03:49:17;;;;;;;0.80;0.80;;;0.50;99.90;;;;;;4960569;28;20079;-81
2023/03/09 03:51:43;;;;;;;0.70;0.70;;;-0.10;99.90;;;;;;4964486;28;20114;-83
2023/03/09 03:54:10;;;;;;;0.70;0.70;;;-0.10;99.90;;;;;;4965979;28;20122;-83
2023/03/09 03:56:36;;;;;;;0.73;0.73;;;-0.10;99.90;;;;;;4944623;28;20050;-82
2023/03/09 03:59:01;;;;;;;0.80;0.80;;;-0.10;99.90;;;;;;4957144;28;20374;-81
2023/03/09 04:01:28;;;;;;;0.80;0.80;;;-0.40;99.90;;;;;;4973759;28;20778;-82
2023/03/09 04:03:53;;;;;;;0.75;0.75;;;0.00;99.90;;;;;;4964283;28;20514;-82
2023/03/09 04:06:19;;;;;;;0.80;0.80;;;-0.10;99.90;;;;;;4969572;28;20043;-82
2023/03/09 04:08:45;;;;;;;0.60;0.60;;;-0.50;99.90;;;;;;5031785;28;20431;-83
2023/03/09 04:11:11;;;;;;;0.65;0.65;;;1.20;99.90;;;;;;4962906;28;20119;-82
2023/03/09 04:13:36;;;;;;;2.55;2.28;;;0.20;99.90;;;;;;4954810;28;20043;-85
2023/03/09 04:16:02;;;;;;;0.70;0.70;;;0.80;99.90;;;;;;4947319;28;20387;-82
2023/03/09 04:18:29;;;;;;;0.70;0.70;;;-0.10;99.90;;;;;;4962571;28;20042;-82
2023/03/09 04:20:54;;;;;;;0.80;0.80;;;-0.10;99.90;;;;;;4947848;28;20081;-83
2023/03/09 04:23:21;;;;;;;0.60;0.60;;;-0.30;99.90;;;;;;4929145;28;20074;-82
2023/03/09 04:25:58;;;;;;;0.80;0.80;;;-0.20;99.90;;;;;;4933276;28;20484;-81
2023/03/09 04:28:24;;;;;;;0.70;0.70;;;-0.50;99.90;;;;;;4948155;28;20043;-82
2023/03/09 04:30:50;;;;;;;;;;;-0.60;99.90;;;;;;4953820;28;20779;-82
2023/03/09 04:33:16;;;;;;;0.70;0.70;;;-0.50;99.90;;;;;;4964745;28;20329;-83
2023/03/09 04:35:42;;;;;;;;;;;-0.20;99.90;;;;;;4943526;28;20050;-83
2023/03/09 04:38:09;;;;;;;0.55;0.55;;;-0.20;99.90;;;;;;4964745;28;19918;-84
2023/03/09 04:40:35;;;;;;;0.70;0.70;;;-0.20;99.90;;;;;;4957718;28;20047;-84
2023/03/09 04:43:01;;;;;;;0.70;0.70;;;-0.30;99.90;;;;;;4946656;28;20411;-84
2023/03/09 04:45:27;;;;;;;0.60;0.60;;;-0.10;99.90;;;;;;4964540;28;20054;-85
2023/03/09 04:47:53;;;;;;;0.70;0.70;;;-0.20;99.90;;;;;;4959552;28;20050;-85
2023/03/09 04:50:19;;;;;;;0.75;0.75;;;-0.30;99.90;;;;;;4940180;28;20051;-83
2023/03/09 04:52:45;;;;;;;0.80;0.80;;;-0.30;99.90;;;;;;4961423;28;20049;-84
2023/03/09 04:55:11;;;;;;;0.80;0.80;;;-0.30;99.90;;;;;;4960492;28;20548;-85
2023/03/09 04:57:36;;;;;;;0.70;0.70;;;-0.40;99.90;;;;;;4959273;28;20027;-84
2023/03/09 05:00:04;;;;;;;0.60;0.60;;;0.30;99.90;;;;;;4948593;28;20543;-83
2023/03/09 05:02:30;;;;;;;0.70;0.70;;;-0.20;99.90;;;;;;4953851;28;21084;-84
2023/03/09 05:04:56;;;;;;;3.45;2.85;;;1.20;99.90;;;;;;4957739;28;20049;-86
2023/03/09 05:07:22;;;;;;;;;;;-0.30;99.90;;;;;;4950626;28;20050;-83
2023/03/09 05:09:48;;;;;;;0.80;0.80;;;0.60;99.90;;;;;;4944631;28;20413;-84
2023/03/09 05:12:14;;;;;;;;;;;-0.10;99.90;;;;;;4927579;28;20108;-84
2023/03/09 05:14:39;;;;;;;0.70;0.70;;;-0.30;99.90;;;;;;4943933;28;19918;-83
2023/03/09 05:17:05;;;;;;;0.60;0.60;;;-0.60;99.90;;;;;;4937778;28;20046;-85
2023/03/09 05:19:31;;;;;;;0.70;0.70;;;0.80;99.90;;;;;;4964465;28;20043;-82
2023/03/09 05:21:56;;;;;;;;;;;1.10;99.90;;;;;;4952433;28;20043;-85
2023/03/09 05:24:22;;;;;;;0.57;0.57;;;-0.60;99.90;;;;;;4933989;28;19922;-81
2023/03/09 05:26:48;;;;;;;0.70;0.70;;;-0.40;99.90;;;;;;4920741;28;20054;-84
2023/03/09 05:29:14;;;;;;;0.60;0.60;;;0.70;99.90;;;;;;4949986;28;20418;-81
2023/03/09 05:31:40;;;;;;;0.73;0.73;;;0.50;99.90;;;;;;4947811;28;20586;-83
2023/03/09 05:34:06;;;;;;;1.00;1.00;;;-0.10;99.90;;;;;;4934308;28;20051;-84
2023/03/09 05:36:32;;;;;;;0.70;0.70;;;0.00;99.90;;;;;;4970556;28;20042;-82
2023/03/09 05:38:59;;;;;;;0.60;0.60;;;-0.20;99.90;;;;;;4952923;28;20564;-83
2023/03/09 05:41:25;;;;;;;0.70;0.70;;;-0.30;99.90;;;;;;4947569;28;20122;-85
2023/03/09 05:43:50;;;;;;;0.60;0.60;;;-0.50;99.90;;;;;;4950926;28;20157;-83
2023/03/09 05:46:16;;;;;;;0.80;0.80;;;0.80;99.90;;;;;;4945707;28;20046;-83
2023/03/09 05:48:45;;;;;;;0.65;0.65;;;0.60;99.90;;;;;;4965274;28;20039;-82
2023/03/09 05:51:11;;;;;;;1.02;1.02;;;-0.40;99.90;;;;;;4945488;28;20442;-84
2023/03/09 05:53:37;;;;;;;0.75;0.75;;;-0.30;99.90;;;;;;4932655;28;20176;-84
2023/03/09 05:56:05;;;;;;;0.60;0.60;;;1.10;99.90;;;;;;4966029;28;20137;-84
2023/03/09 05:58:31;;;;;;;0.80;0.80;;;-0.30;99.90;;;;;;4967818;28;20096;-83
2023/03/09 06:00:57;;;;;;;0.80;0.80;;;-0.90;99.90;;;;;;4953882;28;20077;-84
2023/03/09 06:03:23;;;;;;;0.70;0.70;;;0.00;99.90;;;;;;4932294;28;20074;-83
2023/03/09 06:06:01;;;;;;;0.70;0.70;;;0.80;99.90;;;;;;4952448;28;20129;-84
2023/03/09 06:08:27;;;;;;;0.70;0.70;;;-0.20;99.90;;;;;;4949430;28;20545;-85
2023/03/09 06:10:59;;;;;;;0.70;0.70;;;1.30;99.90;;;;;;4949500;28;20085;-82
2023/03/09 06:13:26;;;;;;;1.00;1.00;;;-0.40;99.90;;;;;;4951624;28;20111;-84
2023/03/09 06:15:52;;;;;;;0.93;0.93;;;-0.20;99.90;;;;;;4946796;28;20039;-83
2023/03/09 06:18:18;;;;;;;0.63;0.63;;;0.10;99.90;;;;;;4946592;28;20035;-82
2023/03/09 06:20:44;;;;;;;0.80;0.80;;;-0.20;99.90;;;;;;4962736;28;20039;-82
2023/03/09 06:23:10;;;;;;;2.22;2.03;;;-0.20;99.90;;;;;;4966845;28;20406;-83
2023/03/09 06:25:37;;;;;;;0.68;0.68;;;-0.60;99.90;;;;;;4951604;28;20530;-83
2023/03/09 06:28:03;;;;;;;0.63;0.63;;;-0.20;99.90;;;;;;4965855;28;20512;-84
2023/03/09 06:30:29;;;;;;;0.70;0.70;;;0.00;99.90;;;;;;4933173;28;20075;-85
2023/03/09 06:32:56;;;;;;;0.60;0.60;;;-0.20;99.90;;;;;;5030519;28;20074;-84
2023/03/09 06:35:22;;;;;;;0.80;0.80;;;0.50;99.90;;;;;;4966884;28;20572;-84
2023/03/09 06:37:48;;;;;;;0.65;0.65;;;-0.30;99.90;;;;;;4973598;28;20050;-86
2023/03/09 06:40:14;;;;;;;0.70;0.70;;;-0.50;99.90;;;;;;4951812;28;20035;-83
2023/03/09 06:42:40;;;;;;;0.88;0.88;;;-0.20;99.90;;;;;;4966272;28;20035;-86
2023/03/09 06:45:07;;;;;;;0.70;0.70;;;-0.20;99.90;;;;;;4983016;28;20046;-83
2023/03/09 06:47:32;;;;;;;0.73;0.73;;;-0.10;99.90;;;;;;5036502;28;20106;-83
2023/03/09 06:49:58;;;;;;;0.80;0.80;;;1.00;99.90;;;;;;4971682;28;20146;-84
2023/03/09 06:52:25;;;;;;;0.80;0.80;;;0.30;99.90;;;;;;4966495;28;20051;-84
2023/03/09 06:54:51;;;;;;;0.80;0.80;;;-0.50;99.90;;;;;;4987244;28;20047;-79
2023/03/09 06:57:18;;;;;;;0.70;0.70;;;-0.40;99.90;;;;;;4962842;28;20507;-84
2023/03/09 06:59:43;;;;;;;;;;;0.70;99.90;;;;;;4958472;28;20097;-85
2023/03/09 07:02:12;;;;;;;0.70;0.70;;;0.10;99.90;;;;;;4965562;28;19921;-83
2023/03/09 07:04:38;;;;;;;0.60;0.60;;;-0.40;99.90;;;;;;4968502;28;20039;-82
2023/03/09 07:07:04;;;;;;;0.70;0.70;;;0.10;99.90;;;;;;4974342;28;20502;-82
2023/03/09 07:09:32;;;;;;;0.60;0.60;;;0.10;99.90;;;;;;4950897;28;20077;-83
2023/03/09 07:11:59;;;;;;;0.82;0.82;;;1.70;99.90;;;;;;4962379;28;20040;-81
2023/03/09 07:14:26;;;;;;;0.70;0.70;;;0.10;99.90;;;;;;4967917;28;20073;-84
2023/03/09 07:16:55;;;;;;;0.70;0.70;;;0.30;99.90;;;;;;4964116;28;20462;-83
2023/03/09 07:19:22;;;;;;;0.60;0.60;;;0.20;99.90;;;;;;4964406;28;20047;-81
2023/03/09 07:21:49;;;;;;;0.70;0.70;;;0.80;99.90;;;;;;4960966;28;20122;-85
2023/03/09 07:24:15;;;;;;;0.60;0.60;;;0.20;99.90;;;;;;4952330;28;20054;-85
2023/03/09 07:26:40;;;;;;;;;;;-0.20;99.90;;;;;;4985085;28;20042;-83
2023/03/09 07:29:06;;;;;;;0.60;0.60;;;0.30;99.90;;;;;;4952757;28;20413;-84
2023/03/09 07:31:32;;;;;;;0.60;0.60;;;0.50;99.90;;;;;;5036597;28;20097;-84
2023/03/09 07:33:58;;;;;;;0.70;0.70;;;1.30;99.90;;;;;;4934701;28;20146;-85
2023/03/09 07:36:24;;;;;;;;;;;1.30;99.90;;;;;;4928945;28;20051;-83
2023/03/09 07:38:50;;;;;;;0.70;0.70;;;0.70;99.90;;;;;;4950384;28;20001;-85
2023/03/09 07:41:17;;;;;;;0.60;0.60;;;0.50;99.90;;;;;;4968774;28;20047;-85
2023/03/09 07:43:48;;;;;;;0.73;0.73;;;0.50;99.90;;;;;;4967203;28;20132;-85
2023/03/09 07:46:17;;;;;;;0.80;0.80;;;0.00;99.90;;;;;;4967095;28;20133;-85
2023/03/09 07:48:43;;;;;;;0.73;0.73;;;1.20;99.90;;;;;;4968464;28;20054;-84
2023/03/09 07:51:10;;;;;;;0.57;0.57;;;0.80;99.90;;;;;;5004792;28;20063;-83
2023/03/09 07:53:45;;;;;;;0.90;0.90;;;1.30;99.90;;;;;;4965439;28;20046;-83
2023/03/09 07:56:11;;;;;;;0.57;0.57;;;2.10;99.90;;;;;;4952961;28;20549;-84
2023/03/09 07:58:38;;;;;;;0.70;0.70;;;2.40;99.90;;;;;;4951496;28;20050;-82
2023/03/09 08:01:06;;;;;;;0.65;0.65;;;1.30;99.90;;;;;;4965979;28;20453;-83
2023/03/09 08:03:35;;;;;;;0.65;0.65;;;2.60;99.90;;;;;;4943706;28;20051;-83
2023/03/09 08:06:05;;;;;;;1.00;1.00;;;1.50;99.90;;;;;;4929091;28;20050;-86
2023/03/09 08:08:33;;;;;;;0.60;0.60;;;1.60;99.90;;;;;;4972069;28;20034;-86
2023/03/09 08:11:00;;;;;;;0.57;0.57;;;1.80;99.90;;;;;;4967144;28;20039;-87
2023/03/09 08:13:25;;;;;;;0.65;0.65;;;2.80;99.90;;;;;;4926551;28;20248;-83
2023/03/09 08:15:52;;;;;;;0.65;0.65;;;1.90;99.90;;;;;;4957216;28;20134;-83
2023/03/09 08:18:18;;;;;;;0.65;0.65;;;1.90;99.90;;;;;;4935679;28;20043;-84
2023/03/09 08:20:44;;;;;;;0.63;0.63;;;1.80;99.90;;;;;;4951898;28;20035;-84
2023/03/09 08:23:10;;;;;;;;;;;1.80;99.90;;;;;;4943008;28;20117;-85
2023/03/09 08:25:36;;;;;;;0.60;0.60;;;1.80;99.90;;;;;;4965771;28;19918;-83
2023/03/09 08:28:03;;;;;;;0.55;0.55;;;2.30;99.90;;;;;;4962384;28;20523;-83
2023/03/09 08:30:30;;;;;;;0.65;0.65;;;2.10;99.90;;;;;;4947115;28;20117;-83
2023/03/09 08:32:57;;;;;;;0.60;0.60;;;2.10;99.90;;;;;;4964604;28;20126;-85
2023/03/09 08:35:28;;;;;;;0.60;0.60;;;1.90;99.90;;;;;;4948247;28;20049;-82
2023/03/09 08:37:54;;;;;;;0.80;0.80;;;2.20;99.90;;;;;;4968855;28;20054;-84
2023/03/09 08:40:20;;;;;;;0.50;0.50;;;2.20;99.90;;;;;;4962325;28;20031;-85
2023/03/09 08:42:46;;;;;;;0.70;0.70;;;2.40;99.90;;;;;;4934466;28;20460;-84
2023/03/09 08:45:12;;;;;;;0.50;0.50;;;2.50;99.90;;;;;;4951495;28;20051;-84
2023/03/09 08:47:38;;;;;;;0.60;0.60;;;2.60;99.90;;;;;;4937271;29;20047;-84
2023/03/09 08:50:05;;;;;;;0.60;0.60;;;2.70;99.90;;;;;;4938619;28;20059;-83
2023/03/09 08:52:36;;;;;;;0.50;0.50;;;2.80;99.90;;;;;;4951738;28;20053;-83
2023/03/09 08:55:04;;;;;;;0.70;0.70;;;3.90;99.90;;;;;;4940649;28;20055;-84
2023/03/09 08:57:29;;;;;;;0.70;0.70;;;2.80;99.90;;;;;;4951844;28;20392;-83
2023/03/09 08:59:55;;;;;;;0.60;0.60;;;2.80;99.90;;;;;;4963017;28;20034;-84
2023/03/09 09:02:21;;;;;;;0.68;0.68;;;2.90;99.90;;;;;;4939244;28;20572;-83
2023/03/09 09:04:47;;;;;;;0.60;0.60;;;3.00;99.90;;;;;;4956768;28;20054;-83
2023/03/09 09:07:14;;;;;;;0.60;0.60;;;2.80;99.90;;;;;;4979556;28;20104;-86
2023/03/09 09:09:40;;;;;;;0.63;0.63;;;3.50;99.90;;;;;;4947741;28;20076;-83
2023/03/09 09:12:08;;;;;;;0.50;0.50;;;3.70;99.90;;;;;;4974985;28;20053;-84
2023/03/09 09:14:34;;;;;;;0.60;0.60;;;3.40;99.90;;;;;;5029775;28;20122;-83
2023/03/09 09:17:01;;;;;;;0.50;0.50;;;4.20;99.90;;;;;;4967567;28;20054;-84
2023/03/09 09:19:27;;;;;;;0.60;0.60;;;5.00;99.90;;;;;;4971940;28;20038;-85
2023/03/09 09:21:54;;;;;;;0.47;0.47;;;3.80;99.90;;;;;;4967147;28;20503;-85
2023/03/09 09:24:21;;;;;;;0.60;0.60;;;3.80;99.90;;;;;;4959701;28;20455;-84
2023/03/09 09:26:47;;;;;;;0.50;0.50;;;4.10;99.90;;;;;;4977127;28;20074;-87
2023/03/09 09:29:13;;;;;;;0.60;0.60;;;3.90;99.90;;;;;;4964358;28;20050;-84
2023/03/09 09:31:40;;;;;;;0.60;0.60;;;4.00;99.90;;;;;;4968311;28;20046;-84
2023/03/09 09:34:05;;;;;;;0.50;0.50;;;3.90;99.90;;;;;;4955235;28;20077;-84
2023/03/09 09:36:33;;;;;;;0.60;0.60;;;3.70;99.90;;;;;;4970218;28;20077;-83
2023/03/09 09:38:59;;;;;;;0.70;0.70;;;4.10;99.90;;;;;;4949369;28;20135;-84
2023/03/09 09:41:40;;;;;;;1.13;1.02;;;4.10;99.90;;;;;;4961474;28;20074;-84
2023/03/09 09:44:18;;;;;;;0.60;0.60;;;4.20;99.90;;;;;;4957681;28;20044;-83
2023/03/09 09:46:46;;;;;;;0.60;0.60;;;4.30;99.90;;;;;;4953420;28;20099;-84
2023/03/09 09:49:19;;;;;;;0.60;0.60;;;4.30;99.90;;;;;;4938443;28;20458;-83
2023/03/09 09:52:19;;;;;;;0.50;0.50;;;4.40;99.90;;;;;;4972953;28;20031;-84
2023/03/09 09:54:56;;;;;;;0.40;0.40;;;4.50;99.90;;;;;;4959901;28;20125;-84
2023/03/09 09:57:38;;;;;;;0.73;0.73;;;4.70;99.90;;;;;;4954274;28;20096;-83
2023/03/09 10:00:06;;;;;;;0.60;0.60;;;5.00;99.90;;;;;;4951492;28;20050;-83
2023/03/09 10:02:51;;;;;;;0.50;0.50;;;5.20;99.90;;;;;;4965231;28;20051;-83
2023/03/09 10:05:41;;;;;;;0.82;0.82;;;5.50;99.90;;;;;;4968858;28;20043;-83
2023/03/09 10:08:22;;;;;;;0.73;0.73;;;5.70;99.90;;;;;;4968764;28;20051;-83
2023/03/09 10:10:49;;;;;;;0.52;0.52;;;5.80;99.90;;;;;;4969702;28;20047;-84
2023/03/09 10:13:23;;;;;;;0.85;0.85;;;6.10;99.90;;;;;;4975016;28;20406;-84
2023/03/09 10:15:51;;;;;;;0.60;0.60;;;5.60;99.90;;;;;;4967346;28;20049;-84
2023/03/09 10:18:25;;;;;;;0.50;0.50;;;5.50;99.90;;;;;;4953684;28;20061;-86
2023/03/09 10:20:53;;;;;;;0.52;0.52;;;5.70;99.90;;;;;;4944291;28;20096;-84
2023/03/09 10:23:30;;;;;;;0.50;0.50;;;5.90;99.90;;;;;;4968034;28;20035;-84
2023/03/09 10:26:18;;;;;;;0.40;0.40;;;6.10;99.90;;;;;;4952000;28;20038;-84
2023/03/09 10:28:48;;;;;;;0.50;0.50;;;6.20;99.90;;;;;;4954067;28;20047;-84
2023/03/09 10:31:28;;;;;;;0.50;0.50;;;6.20;99.90;;;;;;4969971;28;20129;-84
2023/03/09 10:34:21;;;;;;;0.47;0.47;;;5.90;99.90;;;;;;4952636;28;20369;-84
2023/03/09 10:37:04;;;;;;;0.93;0.93;;;5.70;99.90;;;;;;4959038;28;20041;-83
2023/03/09 10:39:45;;;;;;;0.90;0.90;;;5.40;99.90;;;;;;4962998;28;20525;-84
2023/03/09 10:42:19;;;;;;;0.52;0.52;;;5.60;99.90;;;;;;4952638;28;20045;-84
2023/03/09 10:44:56;;;;;;;0.80;0.80;;;5.50;99.90;;;;;;4952964;28;20062;-84
2023/03/09 10:47:22;;;;;;;0.68;0.68;;;5.00;99.90;;;;;;4952914;28;20085;-84
2023/03/09 10:50:11;;;;;;;0.50;0.50;;;5.10;99.90;;;;;;4932848;28;20094;-84
2023/03/09 10:52:37;;;;;;;0.52;0.52;;;5.20;99.90;;;;;;4969058;28;20053;-85
2023/03/09 10:55:27;;;;;;;0.50;0.50;;;5.40;99.90;;;;;;4966538;28;20047;-84
2023/03/09 10:57:58;;;;;;;0.73;0.73;;;5.40;99.90;;;;;;4989991;28;20122;-83
2023/03/09 11:00:27;;;;;;;0.60;0.60;;;5.50;99.90;;;;;;4966910;28;20440;-83
2023/03/09 11:02:56;;;;;;;0.50;0.50;;;5.40;99.90;;;;;;4953429;28;20399;-83
2023/03/09 11:05:26;;;;;;;0.43;0.43;;;5.60;99.90;;;;;;4970274;28;20055;-83
2023/03/09 11:07:55;;;;;;;0.50;0.50;;;5.40;99.90;;;;;;4955847;28;20058;-84
2023/03/09 11:10:38;;;;;;;0.77;0.77;;;5.40;99.90;;;;;;4954772;28;20047;-85
2023/03/09 11:13:19;;;;;;;0.40;0.40;;;5.70;99.90;;;;;;4955811;28;20043;-84
2023/03/09 11:16:26;;;;;;;0.40;0.40;;;5.90;99.90;;;;;;4966780;28;20043;-84
2023/03/09 11:19:14;;;;;;;0.68;0.68;;;6.20;99.90;;;;;;4940596;28;20173;-83
2023/03/09 11:21:50;;;;;;;0.53;0.53;;;6.40;99.90;;;;;;4997503;28;20098;-84
2023/03/09 11:24:16;;;;;;;0.43;0.43;;;6.50;99.90;;;;;;4950474;28;20655;-84
2023/03/09 11:27:05;;;;;;;0.47;0.47;;;6.50;99.90;;;;;;4935900;28;20435;-85
2023/03/09 11:29:57;;;;;;;0.43;0.43;;;6.40;99.90;;;;;;4956174;28;20062;-82
2023/03/09 11:32:23;;;;;;;0.45;0.45;;;6.50;99.90;;;;;;4954721;28;20050;-84
2023/03/09 11:34:50;;;;;;;0.55;0.55;;;6.40;99.90;;;;;;4951182;28;20133;-82
2023/03/09 11:37:41;;;;;;;0.30;0.30;;;6.50;99.90;;;;;;4922291;28;20035;-84
2023/03/09 11:40:19;;;;;;;0.85;0.85;;;6.40;99.90;;;;;;4964122;28;20047;-83
2023/03/09 11:43:09;;;;;;;0.70;0.70;;;6.50;99.90;;;;;;4967426;28;20043;-85
2023/03/09 11:45:37;;;;;;;0.40;0.40;;;6.50;99.90;;;;;;4943324;28;20058;-85
2023/03/09 11:48:24;;;;;;;0.40;0.40;;;6.50;99.90;;;;;;4964912;28;20511;-83
2023/03/09 11:51:14;;;;;;;0.70;0.70;;;6.20;99.90;;;;;;4950531;28;20393;-83
2023/03/09 11:53:47;;;;;;;0.50;0.50;;;6.30;99.90;;;;;;4948494;28;20207;-84
2023/03/09 11:56:22;;;;;;;0.68;0.68;;;6.20;99.90;;;;;;4967460;28;20039;-84
2023/03/09 11:58:55;;;;;;;0.77;0.77;;;6.20;99.90;;;;;;4935692;28;20078;-83
2023/03/09 12:01:27;;;;;;;0.57;0.57;;;6.30;99.90;;;;;;4969537;28;20950;-83
2023/03/09 12:04:05;;;;;;;0.50;0.50;;;6.30;99.90;;;;;;4961465;28;20511;-84
2023/03/09 12:06:37;;;;;;;0.50;0.50;;;6.30;99.90;;;;;;4965836;28;20051;-85
2023/03/09 12:09:08;;;;;;;0.52;0.52;;;6.20;99.90;;;;;;4950410;28;20456;-84
2023/03/09 12:12:02;;;;;;;0.40;0.40;;;6.30;99.90;;;;;;4966017;28;20411;-85
2023/03/09 12:14:34;;;;;;;0.40;0.40;;;6.40;99.90;;;;;;4964457;28;20685;-84
2023/03/09 12:17:06;;;;;;;0.38;0.38;;;5.90;99.90;;;;;;4970688;28;20058;-84
2023/03/09 12:19:35;;;;;;;0.55;0.55;;;6.60;99.90;;;;;;4949815;28;20081;-86
2023/03/09 12:22:15;;;;;;;0.50;0.50;;;6.60;99.90;;;;;;4946387;28;20054;-83
2023/03/09 12:25:15;;;;;;;1.08;1.08;;;6.50;99.90;;;;;;4965934;28;20046;-82
2023/03/09 12:27:51;;;;;;;0.98;0.98;;;6.40;99.90;;;;;;4949563;28;20434;-83
2023/03/09 12:30:30;;;;;;;0.50;0.50;;;6.40;99.90;;;;;;4965602;28;20495;-84
2023/03/09 12:33:01;;;;;;;0.40;0.40;;;6.40;99.90;;;;;;4960880;28;20092;-86
2023/03/09 12:35:46;;;;;;;1.15;1.15;;;6.20;99.90;;;;;;4971268;28;20050;-85
2023/03/09 12:38:26;;;;;;;0.43;0.43;;;6.20;99.90;;;;;;4958731;28;20046;-83
2023/03/09 12:40:52;;;;;;;1.17;0.60;;;6.40;99.90;;;;;;4959628;28;20051;-83
2023/03/09 12:43:18;;;;;;;;;;;6.20;99.90;;;;;;4993476;28;20043;-84
2023/03/09 12:45:46;;;;;;;0.32;0.32;;;6.20;99.90;;;;;;4953575;28;20001;-83
2023/03/09 12:48:28;;;;;;;0.40;0.40;;;6.20;99.90;;;;;;4964575;28;20373;-83
2023/03/09 12:51:18;;;;;;;0.50;0.50;;;6.20;99.90;;;;;;4943947;28;20385;-85
2023/03/09 12:54:05;;;;;;;0.50;0.50;;;6.30;99.90;;;;;;4956168;28;20066;-84
2023/03/09 12:56:33;;;;;;;0.40;0.40;;;6.20;99.90;;;;;;4965988;28;20485;-84
2023/03/09 12:59:06;;;;;;;1.08;1.08;;;6.20;99.90;;;;;;4959444;28;20407;-83
2023/03/09 13:01:33;;;;;;;0.40;0.40;;;5.90;99.90;;;;;;4961324;28;20420;-85
2023/03/09 13:04:17;;;;;;;0.50;0.50;;;6.20;99.90;;;;;;4944356;28;20475;-84
2023/03/09 13:06:58;;;;;;;0.70;0.70;;;6.20;99.90;;;;;;4966907;28;20038;-83
2023/03/09 13:09:36;;;;;;;0.52;0.52;;;6.30;99.90;;;;;;4964523;28;20096;-84
2023/03/09 13:12:32;;;;;;;0.77;0.57;;;6.10;99.90;;;;;;4971925;28;20046;-83